sensor_id;sensor_type;location;lat;lon;timestamp;P1;durP1;ratioP1;P2;durP2;ratioP2
53309;SDS011;39197;53.200;5.792;2023-06-04T00:02:26;10.32;;;5.95;;
53309;SDS011;39197;53.200;5.792;2023-06-04T00:04:52;21.85;;;9.55;;
53309;SDS011;39197;53.200;5.792;2023-06-04T00:07:18;15.90;;;8.50;;
53309;SDS011;39197;53.200;5.792;2023-06-04T00:09:44;20.13;;;9.88;;
53309;SDS011;39197;53.200;5.792;2023-06-04T00:12:12;21.02;;;7.15;;
53309;SDS011;39197;53.200;5.792;2023-06-04T00:14:38;16.17;;;7.57;;
53309;SDS011;39197;53.200;5.792;2023-06-04T00:17:03;19.15;;;11.15;;
53309;SDS011;39197;53.200;5.792;2023-06-04T00:19:29;23.42;;;13.50;;
53309;SDS011;39197;53.200;5.792;2023-06-04T00:21:58;27.38;;;20.27;;
53309;SDS011;39197;53.200;5.792;2023-06-04T00:24:24;20.38;;;12.05;;
53309;SDS011;39197;53.200;5.792;2023-06-04T00:26:50;17.40;;;8.00;;
53309;SDS011;39197;53.200;5.792;2023-06-04T00:29:15;16.13;;;5.78;;
53309;SDS011;39197;53.200;5.792;2023-06-04T00:31:41;11.52;;;5.80;;
53309;SDS011;39197;53.200;5.792;2023-06-04T00:34:07;19.73;;;8.30;;
53309;SDS011;39197;53.200;5.792;2023-06-04T00:36:32;14.40;;;6.60;;
53309;SDS011;39197;53.200;5.792;2023-06-04T00:38:58;18.65;;;11.10;;
53309;SDS011;39197;53.200;5.792;2023-06-04T00:41:24;18.55;;;10.55;;
53309;SDS011;39197;53.200;5.792;2023-06-04T00:43:50;41.72;;;26.42;;
53309;SDS011;39197;53.200;5.792;2023-06-04T00:46:22;24.08;;;13.82;;
53309;SDS011;39197;53.200;5.792;2023-06-04T00:48:50;21.05;;;12.05;;
53309;SDS011;39197;53.200;5.792;2023-06-04T00:51:17;17.98;;;8.40;;
53309;SDS011;39197;53.200;5.792;2023-06-04T00:53:42;17.38;;;8.27;;
53309;SDS011;39197;53.200;5.792;2023-06-04T00:56:08;27.00;;;11.60;;
53309;SDS011;39197;53.200;5.792;2023-06-04T00:58:37;14.00;;;5.53;;
53309;SDS011;39197;53.200;5.792;2023-06-04T01:01:10;15.30;;;5.10;;
53309;SDS011;39197;53.200;5.792;2023-06-04T01:03:53;16.92;;;6.28;;
53309;SDS011;39197;53.200;5.792;2023-06-04T01:06:22;12.00;;;4.50;;
53309;SDS011;39197;53.200;5.792;2023-06-04T01:09:03;12.63;;;5.70;;
53309;SDS011;39197;53.200;5.792;2023-06-04T01:11:30;13.45;;;4.65;;
53309;SDS011;39197;53.200;5.792;2023-06-04T01:14:03;15.07;;;4.32;;
53309;SDS011;39197;53.200;5.792;2023-06-04T01:16:31;13.63;;;4.85;;
53309;SDS011;39197;53.200;5.792;2023-06-04T01:19:01;8.93;;;4.47;;
53309;SDS011;39197;53.200;5.792;2023-06-04T01:21:30;14.57;;;6.10;;
53309;SDS011;39197;53.200;5.792;2023-06-04T01:24:00;17.33;;;8.32;;
53309;SDS011;39197;53.200;5.792;2023-06-04T01:26:30;17.33;;;6.40;;
53309;SDS011;39197;53.200;5.792;2023-06-04T01:28:57;17.77;;;7.25;;
53309;SDS011;39197;53.200;5.792;2023-06-04T01:31:24;9.40;;;2.75;;
53309;SDS011;39197;53.200;5.792;2023-06-04T01:33:54;17.58;;;6.57;;
53309;SDS011;39197;53.200;5.792;2023-06-04T01:36:23;14.27;;;5.20;;
53309;SDS011;39197;53.200;5.792;2023-06-04T01:38:50;14.73;;;3.58;;
53309;SDS011;39197;53.200;5.792;2023-06-04T01:41:16;18.70;;;8.27;;
53309;SDS011;39197;53.200;5.792;2023-06-04T01:43:41;12.52;;;7.40;;
53309;SDS011;39197;53.200;5.792;2023-06-04T01:46:07;20.13;;;5.40;;
53309;SDS011;39197;53.200;5.792;2023-06-04T01:48:33;15.25;;;5.95;;
53309;SDS011;39197;53.200;5.792;2023-06-04T01:50:58;11.60;;;5.43;;
53309;SDS011;39197;53.200;5.792;2023-06-04T01:53:25;16.10;;;8.35;;
53309;SDS011;39197;53.200;5.792;2023-06-04T01:55:51;18.27;;;6.95;;
53309;SDS011;39197;53.200;5.792;2023-06-04T01:58:17;21.25;;;12.95;;
53309;SDS011;39197;53.200;5.792;2023-06-04T02:00:48;17.17;;;9.98;;
53309;SDS011;39197;53.200;5.792;2023-06-04T02:03:14;18.70;;;8.85;;
53309;SDS011;39197;53.200;5.792;2023-06-04T02:05:40;13.88;;;6.43;;
53309;SDS011;39197;53.200;5.792;2023-06-04T02:08:06;21.05;;;10.90;;
53309;SDS011;39197;53.200;5.792;2023-06-04T02:10:31;15.07;;;9.23;;
53309;SDS011;39197;53.200;5.792;2023-06-04T02:12:58;17.08;;;9.88;;
53309;SDS011;39197;53.200;5.792;2023-06-04T02:15:26;26.33;;;13.68;;
53309;SDS011;39197;53.200;5.792;2023-06-04T02:17:59;26.02;;;13.73;;
53309;SDS011;39197;53.200;5.792;2023-06-04T02:20:40;24.67;;;14.88;;
53309;SDS011;39197;53.200;5.792;2023-06-04T02:23:06;23.85;;;13.35;;
53309;SDS011;39197;53.200;5.792;2023-06-04T02:25:32;22.35;;;12.65;;
53309;SDS011;39197;53.200;5.792;2023-06-04T02:27:57;19.02;;;8.30;;
53309;SDS011;39197;53.200;5.792;2023-06-04T02:30:23;18.83;;;10.68;;
53309;SDS011;39197;53.200;5.792;2023-06-04T02:32:48;18.33;;;10.05;;
53309;SDS011;39197;53.200;5.792;2023-06-04T02:35:15;17.00;;;8.98;;
53309;SDS011;39197;53.200;5.792;2023-06-04T02:37:42;18.55;;;8.63;;
53309;SDS011;39197;53.200;5.792;2023-06-04T02:40:09;18.65;;;8.80;;
53309;SDS011;39197;53.200;5.792;2023-06-04T02:42:35;13.60;;;7.88;;
53309;SDS011;39197;53.200;5.792;2023-06-04T02:45:01;16.90;;;9.40;;
53309;SDS011;39197;53.200;5.792;2023-06-04T02:47:27;18.92;;;9.88;;
53309;SDS011;39197;53.200;5.792;2023-06-04T02:49:52;18.10;;;9.63;;
53309;SDS011;39197;53.200;5.792;2023-06-04T02:52:18;17.77;;;8.90;;
53309;SDS011;39197;53.200;5.792;2023-06-04T02:54:44;12.70;;;6.10;;
53309;SDS011;39197;53.200;5.792;2023-06-04T02:57:10;13.32;;;6.13;;
53309;SDS011;39197;53.200;5.792;2023-06-04T02:59:35;13.65;;;7.05;;
53309;SDS011;39197;53.200;5.792;2023-06-04T03:02:01;19.17;;;7.93;;
53309;SDS011;39197;53.200;5.792;2023-06-04T03:04:27;16.58;;;7.93;;
53309;SDS011;39197;53.200;5.792;2023-06-04T03:06:59;27.37;;;15.43;;
53309;SDS011;39197;53.200;5.792;2023-06-04T03:09:28;17.40;;;8.43;;
53309;SDS011;39197;53.200;5.792;2023-06-04T03:11:56;18.33;;;10.95;;
53309;SDS011;39197;53.200;5.792;2023-06-04T03:14:24;19.95;;;9.45;;
53309;SDS011;39197;53.200;5.792;2023-06-04T03:16:57;12.75;;;7.55;;
53309;SDS011;39197;53.200;5.792;2023-06-04T03:19:26;15.57;;;8.70;;
53309;SDS011;39197;53.200;5.792;2023-06-04T03:21:52;23.67;;;13.65;;
53309;SDS011;39197;53.200;5.792;2023-06-04T03:24:18;16.48;;;10.55;;
53309;SDS011;39197;53.200;5.792;2023-06-04T03:26:45;18.65;;;7.47;;
53309;SDS011;39197;53.200;5.792;2023-06-04T03:29:10;18.42;;;7.80;;
53309;SDS011;39197;53.200;5.792;2023-06-04T03:31:36;17.15;;;8.45;;
53309;SDS011;39197;53.200;5.792;2023-06-04T03:34:02;13.52;;;7.05;;
53309;SDS011;39197;53.200;5.792;2023-06-04T03:36:29;13.30;;;7.15;;
53309;SDS011;39197;53.200;5.792;2023-06-04T03:38:56;14.15;;;9.75;;
53309;SDS011;39197;53.200;5.792;2023-06-04T03:41:22;13.90;;;8.38;;
53309;SDS011;39197;53.200;5.792;2023-06-04T03:43:48;13.85;;;8.45;;
53309;SDS011;39197;53.200;5.792;2023-06-04T03:46:14;19.88;;;9.07;;
53309;SDS011;39197;53.200;5.792;2023-06-04T03:48:41;17.73;;;9.50;;
53309;SDS011;39197;53.200;5.792;2023-06-04T03:51:07;13.05;;;7.95;;
53309;SDS011;39197;53.200;5.792;2023-06-04T03:53:32;12.10;;;7.63;;
53309;SDS011;39197;53.200;5.792;2023-06-04T03:55:58;12.77;;;7.72;;
53309;SDS011;39197;53.200;5.792;2023-06-04T03:58:23;13.85;;;7.72;;
53309;SDS011;39197;53.200;5.792;2023-06-04T04:00:49;17.80;;;7.53;;
53309;SDS011;39197;53.200;5.792;2023-06-04T04:03:15;17.02;;;9.60;;
53309;SDS011;39197;53.200;5.792;2023-06-04T04:05:40;11.55;;;7.57;;
53309;SDS011;39197;53.200;5.792;2023-06-04T04:08:06;13.00;;;7.72;;
53309;SDS011;39197;53.200;5.792;2023-06-04T04:10:33;15.18;;;7.57;;
53309;SDS011;39197;53.200;5.792;2023-06-04T04:12:59;14.20;;;8.93;;
53309;SDS011;39197;53.200;5.792;2023-06-04T04:15:25;12.45;;;6.88;;
53309;SDS011;39197;53.200;5.792;2023-06-04T04:17:50;15.85;;;8.23;;
53309;SDS011;39197;53.200;5.792;2023-06-04T04:20:16;14.40;;;7.90;;
53309;SDS011;39197;53.200;5.792;2023-06-04T04:22:43;11.32;;;8.18;;
53309;SDS011;39197;53.200;5.792;2023-06-04T04:25:08;12.10;;;7.53;;
53309;SDS011;39197;53.200;5.792;2023-06-04T04:27:34;16.95;;;7.65;;
53309;SDS011;39197;53.200;5.792;2023-06-04T04:30:04;10.60;;;8.32;;
53309;SDS011;39197;53.200;5.792;2023-06-04T04:32:30;11.43;;;7.93;;
53309;SDS011;39197;53.200;5.792;2023-06-04T04:34:56;12.35;;;6.80;;
53309;SDS011;39197;53.200;5.792;2023-06-04T04:37:22;16.42;;;6.97;;
53309;SDS011;39197;53.200;5.792;2023-06-04T04:39:48;14.45;;;8.10;;
53309;SDS011;39197;53.200;5.792;2023-06-04T04:42:17;12.98;;;7.95;;
53309;SDS011;39197;53.200;5.792;2023-06-04T04:44:44;11.05;;;8.13;;
53309;SDS011;39197;53.200;5.792;2023-06-04T04:47:13;12.27;;;8.18;;
53309;SDS011;39197;53.200;5.792;2023-06-04T04:49:41;12.02;;;7.40;;
53309;SDS011;39197;53.200;5.792;2023-06-04T04:52:07;11.40;;;8.00;;
53309;SDS011;39197;53.200;5.792;2023-06-04T04:54:33;13.63;;;7.05;;
53309;SDS011;39197;53.200;5.792;2023-06-04T04:56:58;12.30;;;6.97;;
53309;SDS011;39197;53.200;5.792;2023-06-04T04:59:24;9.30;;;7.18;;
53309;SDS011;39197;53.200;5.792;2023-06-04T05:01:49;22.42;;;7.82;;
53309;SDS011;39197;53.200;5.792;2023-06-04T05:04:15;13.73;;;7.13;;
53309;SDS011;39197;53.200;5.792;2023-06-04T05:06:40;14.32;;;6.20;;
53309;SDS011;39197;53.200;5.792;2023-06-04T05:09:06;9.00;;;5.90;;
53309;SDS011;39197;53.200;5.792;2023-06-04T05:11:32;9.77;;;5.13;;
53309;SDS011;39197;53.200;5.792;2023-06-04T05:13:58;15.43;;;5.43;;
53309;SDS011;39197;53.200;5.792;2023-06-04T05:16:23;11.00;;;5.75;;
53309;SDS011;39197;53.200;5.792;2023-06-04T05:18:50;14.25;;;5.70;;
53309;SDS011;39197;53.200;5.792;2023-06-04T05:21:16;11.52;;;5.25;;
53309;SDS011;39197;53.200;5.792;2023-06-04T05:23:42;10.60;;;5.97;;
53309;SDS011;39197;53.200;5.792;2023-06-04T05:26:09;14.43;;;6.57;;
53309;SDS011;39197;53.200;5.792;2023-06-04T05:28:34;12.25;;;6.32;;
53309;SDS011;39197;53.200;5.792;2023-06-04T05:31:00;9.23;;;5.60;;
53309;SDS011;39197;53.200;5.792;2023-06-04T05:33:26;9.55;;;5.43;;
53309;SDS011;39197;53.200;5.792;2023-06-04T05:35:52;8.32;;;4.85;;
53309;SDS011;39197;53.200;5.792;2023-06-04T05:38:19;9.95;;;5.40;;
53309;SDS011;39197;53.200;5.792;2023-06-04T05:40:45;10.80;;;5.45;;
53309;SDS011;39197;53.200;5.792;2023-06-04T05:43:12;11.20;;;4.57;;
53309;SDS011;39197;53.200;5.792;2023-06-04T05:45:37;7.18;;;4.07;;
53309;SDS011;39197;53.200;5.792;2023-06-04T05:48:04;10.75;;;4.00;;
53309;SDS011;39197;53.200;5.792;2023-06-04T05:50:30;11.25;;;5.13;;
53309;SDS011;39197;53.200;5.792;2023-06-04T05:52:56;7.85;;;4.57;;
53309;SDS011;39197;53.200;5.792;2023-06-04T05:55:22;7.15;;;5.07;;
53309;SDS011;39197;53.200;5.792;2023-06-04T05:57:48;9.68;;;4.68;;
53309;SDS011;39197;53.200;5.792;2023-06-04T06:00:16;9.80;;;5.45;;
53309;SDS011;39197;53.200;5.792;2023-06-04T06:02:42;9.88;;;5.57;;
53309;SDS011;39197;53.200;5.792;2023-06-04T06:05:08;9.65;;;4.93;;
53309;SDS011;39197;53.200;5.792;2023-06-04T06:07:34;13.02;;;7.18;;
53309;SDS011;39197;53.200;5.792;2023-06-04T06:10:00;10.82;;;6.10;;
53309;SDS011;39197;53.200;5.792;2023-06-04T06:12:26;10.07;;;5.55;;
53309;SDS011;39197;53.200;5.792;2023-06-04T06:14:52;12.75;;;5.82;;
53309;SDS011;39197;53.200;5.792;2023-06-04T06:17:17;47.08;;;13.45;;
53309;SDS011;39197;53.200;5.792;2023-06-04T06:19:43;39.05;;;11.73;;
53309;SDS011;39197;53.200;5.792;2023-06-04T06:22:09;16.20;;;5.20;;
53309;SDS011;39197;53.200;5.792;2023-06-04T06:24:35;10.13;;;4.40;;
53309;SDS011;39197;53.200;5.792;2023-06-04T06:27:01;14.82;;;4.75;;
53309;SDS011;39197;53.200;5.792;2023-06-04T06:29:26;10.73;;;3.90;;
53309;SDS011;39197;53.200;5.792;2023-06-04T06:31:52;13.02;;;3.67;;
53309;SDS011;39197;53.200;5.792;2023-06-04T06:34:18;10.52;;;3.40;;
53309;SDS011;39197;53.200;5.792;2023-06-04T06:36:43;11.25;;;4.63;;
53309;SDS011;39197;53.200;5.792;2023-06-04T06:39:09;14.38;;;3.60;;
53309;SDS011;39197;53.200;5.792;2023-06-04T06:41:35;9.05;;;3.55;;
53309;SDS011;39197;53.200;5.792;2023-06-04T06:44:03;8.65;;;2.85;;
53309;SDS011;39197;53.200;5.792;2023-06-04T06:46:29;9.95;;;3.22;;
53309;SDS011;39197;53.200;5.792;2023-06-04T06:48:55;7.97;;;2.63;;
53309;SDS011;39197;53.200;5.792;2023-06-04T06:51:21;10.80;;;2.90;;
53309;SDS011;39197;53.200;5.792;2023-06-04T06:53:48;5.45;;;2.30;;
53309;SDS011;39197;53.200;5.792;2023-06-04T06:56:15;11.35;;;2.92;;
53309;SDS011;39197;53.200;5.792;2023-06-04T06:58:40;9.05;;;3.65;;
53309;SDS011;39197;53.200;5.792;2023-06-04T07:01:06;9.18;;;2.28;;
53309;SDS011;39197;53.200;5.792;2023-06-04T07:03:32;9.90;;;2.50;;
53309;SDS011;39197;53.200;5.792;2023-06-04T07:05:57;9.50;;;2.47;;
53309;SDS011;39197;53.200;5.792;2023-06-04T07:08:23;8.25;;;2.42;;
53309;SDS011;39197;53.200;5.792;2023-06-04T07:10:48;7.47;;;2.00;;
53309;SDS011;39197;53.200;5.792;2023-06-04T07:13:14;12.75;;;2.20;;
53309;SDS011;39197;53.200;5.792;2023-06-04T07:15:40;9.70;;;2.30;;
53309;SDS011;39197;53.200;5.792;2023-06-04T07:18:06;8.45;;;2.20;;
53309;SDS011;39197;53.200;5.792;2023-06-04T07:20:31;5.82;;;1.55;;
53309;SDS011;39197;53.200;5.792;2023-06-04T07:22:57;6.57;;;1.63;;
53309;SDS011;39197;53.200;5.792;2023-06-04T07:25:23;8.45;;;2.03;;
53309;SDS011;39197;53.200;5.792;2023-06-04T07:27:49;7.85;;;2.25;;
53309;SDS011;39197;53.200;5.792;2023-06-04T07:30:17;9.05;;;1.60;;
53309;SDS011;39197;53.200;5.792;2023-06-04T07:32:50;8.88;;;1.85;;
53309;SDS011;39197;53.200;5.792;2023-06-04T07:35:16;6.45;;;1.70;;
53309;SDS011;39197;53.200;5.792;2023-06-04T07:37:41;7.68;;;1.52;;
53309;SDS011;39197;53.200;5.792;2023-06-04T07:40:10;6.68;;;1.95;;
53309;SDS011;39197;53.200;5.792;2023-06-04T07:42:36;7.05;;;1.88;;
53309;SDS011;39197;53.200;5.792;2023-06-04T07:45:02;6.65;;;1.60;;
53309;SDS011;39197;53.200;5.792;2023-06-04T07:47:33;9.55;;;2.58;;
53309;SDS011;39197;53.200;5.792;2023-06-04T07:49:58;5.40;;;1.60;;
53309;SDS011;39197;53.200;5.792;2023-06-04T07:52:25;6.78;;;1.77;;
53309;SDS011;39197;53.200;5.792;2023-06-04T07:54:51;4.25;;;1.25;;
53309;SDS011;39197;53.200;5.792;2023-06-04T07:57:17;6.60;;;1.73;;
53309;SDS011;39197;53.200;5.792;2023-06-04T07:59:42;5.50;;;1.73;;
53309;SDS011;39197;53.200;5.792;2023-06-04T08:02:08;6.97;;;1.85;;
53309;SDS011;39197;53.200;5.792;2023-06-04T08:04:34;4.43;;;1.58;;
53309;SDS011;39197;53.200;5.792;2023-06-04T08:07:00;4.45;;;1.38;;
53309;SDS011;39197;53.200;5.792;2023-06-04T08:09:26;7.05;;;2.35;;
53309;SDS011;39197;53.200;5.792;2023-06-04T08:11:51;5.05;;;1.58;;
53309;SDS011;39197;53.200;5.792;2023-06-04T08:14:17;7.10;;;1.00;;
53309;SDS011;39197;53.200;5.792;2023-06-04T08:16:45;7.65;;;1.77;;
53309;SDS011;39197;53.200;5.792;2023-06-04T08:19:10;4.68;;;1.30;;
53309;SDS011;39197;53.200;5.792;2023-06-04T08:21:36;4.93;;;1.25;;
53309;SDS011;39197;53.200;5.792;2023-06-04T08:24:02;6.68;;;1.35;;
53309;SDS011;39197;53.200;5.792;2023-06-04T08:26:28;7.40;;;1.70;;
53309;SDS011;39197;53.200;5.792;2023-06-04T08:28:54;8.48;;;1.98;;
53309;SDS011;39197;53.200;5.792;2023-06-04T08:31:20;6.68;;;1.60;;
53309;SDS011;39197;53.200;5.792;2023-06-04T08:33:46;5.68;;;2.17;;
53309;SDS011;39197;53.200;5.792;2023-06-04T08:36:13;3.53;;;1.40;;
53309;SDS011;39197;53.200;5.792;2023-06-04T08:38:39;6.50;;;1.65;;
53309;SDS011;39197;53.200;5.792;2023-06-04T08:41:18;5.25;;;1.60;;
53309;SDS011;39197;53.200;5.792;2023-06-04T08:43:48;5.90;;;1.40;;
53309;SDS011;39197;53.200;5.792;2023-06-04T08:46:15;6.10;;;1.63;;
53309;SDS011;39197;53.200;5.792;2023-06-04T08:48:43;6.10;;;1.33;;
53309;SDS011;39197;53.200;5.792;2023-06-04T08:51:08;5.70;;;1.15;;
53309;SDS011;39197;53.200;5.792;2023-06-04T08:53:36;7.65;;;0.90;;
53309;SDS011;39197;53.200;5.792;2023-06-04T08:56:02;4.88;;;1.10;;
53309;SDS011;39197;53.200;5.792;2023-06-04T08:58:32;4.00;;;1.20;;
53309;SDS011;39197;53.200;5.792;2023-06-04T09:01:01;5.13;;;1.27;;
53309;SDS011;39197;53.200;5.792;2023-06-04T09:03:28;5.28;;;1.42;;
53309;SDS011;39197;53.200;5.792;2023-06-04T09:05:58;5.50;;;1.65;;
53309;SDS011;39197;53.200;5.792;2023-06-04T09:08:24;4.80;;;1.30;;
53309;SDS011;39197;53.200;5.792;2023-06-04T09:10:54;4.88;;;1.13;;
53309;SDS011;39197;53.200;5.792;2023-06-04T09:13:21;6.60;;;1.60;;
53309;SDS011;39197;53.200;5.792;2023-06-04T09:16:00;5.47;;;2.85;;
53309;SDS011;39197;53.200;5.792;2023-06-04T09:18:31;6.68;;;1.40;;
53309;SDS011;39197;53.200;5.792;2023-06-04T09:21:04;3.75;;;1.00;;
53309;SDS011;39197;53.200;5.792;2023-06-04T09:23:31;5.03;;;1.80;;
53309;SDS011;39197;53.200;5.792;2023-06-04T09:26:09;5.53;;;1.20;;
53309;SDS011;39197;53.200;5.792;2023-06-04T09:28:36;3.90;;;1.70;;
53309;SDS011;39197;53.200;5.792;2023-06-04T09:31:15;3.92;;;1.00;;
53309;SDS011;39197;53.200;5.792;2023-06-04T09:33:42;5.03;;;1.58;;
53309;SDS011;39197;53.200;5.792;2023-06-04T09:36:11;5.43;;;1.42;;
53309;SDS011;39197;53.200;5.792;2023-06-04T09:38:37;2.83;;;1.63;;
53309;SDS011;39197;53.200;5.792;2023-06-04T09:41:03;7.20;;;1.45;;
53309;SDS011;39197;53.200;5.792;2023-06-04T09:43:31;4.65;;;1.42;;
53309;SDS011;39197;53.200;5.792;2023-06-04T09:46:08;3.83;;;1.27;;
53309;SDS011;39197;53.200;5.792;2023-06-04T09:48:37;3.58;;;1.63;;
53309;SDS011;39197;53.200;5.792;2023-06-04T09:53:35;4.97;;;1.40;;
53309;SDS011;39197;53.200;5.792;2023-06-04T09:56:03;5.30;;;1.55;;
53309;SDS011;39197;53.200;5.792;2023-06-04T09:58:33;7.13;;;1.80;;
53309;SDS011;39197;53.200;5.792;2023-06-04T10:01:01;5.18;;;1.30;;
53309;SDS011;39197;53.200;5.792;2023-06-04T10:03:35;3.67;;;1.10;;
53309;SDS011;39197;53.200;5.792;2023-06-04T10:06:02;5.97;;;1.33;;
53309;SDS011;39197;53.200;5.792;2023-06-04T10:08:30;4.25;;;1.88;;
53309;SDS011;39197;53.200;5.792;2023-06-04T10:10:58;4.07;;;2.22;;
53309;SDS011;39197;53.200;5.792;2023-06-04T10:14:10;3.92;;;1.65;;
53309;SDS011;39197;53.200;5.792;2023-06-04T10:16:16;4.80;;;2.20;;
53309;SDS011;39197;53.200;5.792;2023-06-04T10:18:43;5.80;;;1.30;;
53309;SDS011;39197;53.200;5.792;2023-06-04T10:21:09;4.28;;;1.30;;
53309;SDS011;39197;53.200;5.792;2023-06-04T10:23:38;4.90;;;1.35;;
53309;SDS011;39197;53.200;5.792;2023-06-04T10:26:04;6.18;;;1.90;;
53309;SDS011;39197;53.200;5.792;2023-06-04T10:28:30;4.93;;;1.92;;
53309;SDS011;39197;53.200;5.792;2023-06-04T10:30:56;5.43;;;2.00;;
53309;SDS011;39197;53.200;5.792;2023-06-04T10:33:28;4.13;;;1.63;;
53309;SDS011;39197;53.200;5.792;2023-06-04T10:35:54;5.00;;;1.45;;
53309;SDS011;39197;53.200;5.792;2023-06-04T10:38:22;4.72;;;1.30;;
53309;SDS011;39197;53.200;5.792;2023-06-04T10:40:50;5.18;;;1.85;;
53309;SDS011;39197;53.200;5.792;2023-06-04T10:43:16;4.72;;;1.60;;
53309;SDS011;39197;53.200;5.792;2023-06-04T10:45:42;4.78;;;2.08;;
53309;SDS011;39197;53.200;5.792;2023-06-04T10:48:08;5.88;;;1.52;;
53309;SDS011;39197;53.200;5.792;2023-06-04T10:50:47;3.97;;;1.60;;
53309;SDS011;39197;53.200;5.792;2023-06-04T10:53:13;5.97;;;2.83;;
53309;SDS011;39197;53.200;5.792;2023-06-04T10:55:46;4.05;;;1.65;;
53309;SDS011;39197;53.200;5.792;2023-06-04T11:01:08;4.53;;;1.60;;
53309;SDS011;39197;53.200;5.792;2023-06-04T11:03:35;3.83;;;1.30;;
53309;SDS011;39197;53.200;5.792;2023-06-04T11:06:14;4.28;;;1.48;;
53309;SDS011;39197;53.200;5.792;2023-06-04T11:08:43;5.50;;;1.95;;
53309;SDS011;39197;53.200;5.792;2023-06-04T11:11:10;4.95;;;2.47;;
53309;SDS011;39197;53.200;5.792;2023-06-04T11:14:27;2.92;;;1.35;;
53309;SDS011;39197;53.200;5.792;2023-06-04T11:16:53;3.03;;;1.52;;
53309;SDS011;39197;53.200;5.792;2023-06-04T11:19:18;6.15;;;1.52;;
53309;SDS011;39197;53.200;5.792;2023-06-04T11:21:45;2.92;;;1.50;;
53309;SDS011;39197;53.200;5.792;2023-06-04T11:24:14;8.13;;;1.80;;
53309;SDS011;39197;53.200;5.792;2023-06-04T11:26:41;4.53;;;1.48;;
53309;SDS011;39197;53.200;5.792;2023-06-04T11:29:08;5.18;;;1.88;;
53309;SDS011;39197;53.200;5.792;2023-06-04T11:34:24;3.22;;;1.35;;
53309;SDS011;39197;53.200;5.792;2023-06-04T11:36:55;7.78;;;2.50;;
53309;SDS011;39197;53.200;5.792;2023-06-04T11:39:42;3.53;;;2.08;;
53309;SDS011;39197;53.200;5.792;2023-06-04T11:42:12;5.72;;;1.55;;
53309;SDS011;39197;53.200;5.792;2023-06-04T11:44:39;5.63;;;1.92;;
53309;SDS011;39197;53.200;5.792;2023-06-04T11:47:10;4.40;;;1.53;;
53309;SDS011;39197;53.200;5.792;2023-06-04T11:49:37;4.80;;;1.65;;
53309;SDS011;39197;53.200;5.792;2023-06-04T11:52:06;4.57;;;1.80;;
53309;SDS011;39197;53.200;5.792;2023-06-04T11:54:33;4.20;;;1.65;;
53309;SDS011;39197;53.200;5.792;2023-06-04T11:57:03;4.70;;;1.80;;
53309;SDS011;39197;53.200;5.792;2023-06-04T11:59:30;3.85;;;1.80;;
53309;SDS011;39197;53.200;5.792;2023-06-04T12:01:57;5.25;;;1.58;;
53309;SDS011;39197;53.200;5.792;2023-06-04T12:08:05;4.38;;;1.45;;
53309;SDS011;39197;53.200;5.792;2023-06-04T12:13:05;4.88;;;1.90;;
53309;SDS011;39197;53.200;5.792;2023-06-04T12:15:31;4.95;;;1.65;;
53309;SDS011;39197;53.200;5.792;2023-06-04T12:17:58;7.45;;;3.97;;
53309;SDS011;39197;53.200;5.792;2023-06-04T12:20:39;4.97;;;2.22;;
53309;SDS011;39197;53.200;5.792;2023-06-04T12:23:18;6.68;;;2.35;;
53309;SDS011;39197;53.200;5.792;2023-06-04T12:25:51;5.80;;;1.77;;
53309;SDS011;39197;53.200;5.792;2023-06-04T12:28:33;4.95;;;1.70;;
53309;SDS011;39197;53.200;5.792;2023-06-04T12:31:01;5.80;;;3.08;;
53309;SDS011;39197;53.200;5.792;2023-06-04T12:33:27;4.35;;;1.83;;
53309;SDS011;39197;53.200;5.792;2023-06-04T12:35:53;6.13;;;2.88;;
53309;SDS011;39197;53.200;5.792;2023-06-04T12:38:36;6.53;;;2.90;;
53309;SDS011;39197;53.200;5.792;2023-06-04T12:41:02;6.03;;;2.00;;
53309;SDS011;39197;53.200;5.792;2023-06-04T12:43:29;4.63;;;2.10;;
53309;SDS011;39197;53.200;5.792;2023-06-04T12:45:58;4.10;;;1.60;;
53309;SDS011;39197;53.200;5.792;2023-06-04T12:48:24;3.47;;;1.15;;
53309;SDS011;39197;53.200;5.792;2023-06-04T12:50:53;5.38;;;2.55;;
53309;SDS011;39197;53.200;5.792;2023-06-04T12:53:19;6.05;;;3.08;;
53309;SDS011;39197;53.200;5.792;2023-06-04T12:55:45;6.80;;;2.20;;
53309;SDS011;39197;53.200;5.792;2023-06-04T12:58:11;4.35;;;1.55;;
53309;SDS011;39197;53.200;5.792;2023-06-04T13:00:36;4.25;;;1.77;;
53309;SDS011;39197;53.200;5.792;2023-06-04T13:03:02;3.95;;;1.60;;
53309;SDS011;39197;53.200;5.792;2023-06-04T13:05:27;3.50;;;1.48;;
53309;SDS011;39197;53.200;5.792;2023-06-04T13:07:53;2.70;;;1.33;;
53309;SDS011;39197;53.200;5.792;2023-06-04T13:10:19;10.20;;;3.42;;
53309;SDS011;39197;53.200;5.792;2023-06-04T13:12:45;4.38;;;1.88;;
53309;SDS011;39197;53.200;5.792;2023-06-04T13:15:12;3.58;;;1.58;;
53309;SDS011;39197;53.200;5.792;2023-06-04T13:17:37;5.22;;;2.53;;
53309;SDS011;39197;53.200;5.792;2023-06-04T13:20:04;2.92;;;1.30;;
53309;SDS011;39197;53.200;5.792;2023-06-04T13:22:30;4.47;;;1.38;;
53309;SDS011;39197;53.200;5.792;2023-06-04T13:24:56;4.78;;;2.13;;
53309;SDS011;39197;53.200;5.792;2023-06-04T13:27:22;5.22;;;2.20;;
53309;SDS011;39197;53.200;5.792;2023-06-04T13:29:47;5.53;;;1.77;;
53309;SDS011;39197;53.200;5.792;2023-06-04T13:32:13;3.47;;;1.45;;
53309;SDS011;39197;53.200;5.792;2023-06-04T13:34:38;5.00;;;1.17;;
53309;SDS011;39197;53.200;5.792;2023-06-04T13:37:04;6.07;;;2.53;;
53309;SDS011;39197;53.200;5.792;2023-06-04T13:39:30;5.15;;;2.63;;
53309;SDS011;39197;53.200;5.792;2023-06-04T13:41:56;7.25;;;1.88;;
53309;SDS011;39197;53.200;5.792;2023-06-04T13:44:21;3.03;;;1.65;;
53309;SDS011;39197;53.200;5.792;2023-06-04T13:46:51;8.63;;;2.53;;
53309;SDS011;39197;53.200;5.792;2023-06-04T13:49:17;5.57;;;2.65;;
53309;SDS011;39197;53.200;5.792;2023-06-04T13:51:42;3.72;;;1.42;;
53309;SDS011;39197;53.200;5.792;2023-06-04T13:54:08;5.55;;;2.03;;
53309;SDS011;39197;53.200;5.792;2023-06-04T13:56:35;4.03;;;1.40;;
53309;SDS011;39197;53.200;5.792;2023-06-04T13:59:01;3.00;;;1.90;;
53309;SDS011;39197;53.200;5.792;2023-06-04T14:01:26;3.80;;;1.40;;
53309;SDS011;39197;53.200;5.792;2023-06-04T14:03:52;3.15;;;1.20;;
53309;SDS011;39197;53.200;5.792;2023-06-04T14:06:18;3.30;;;1.73;;
53309;SDS011;39197;53.200;5.792;2023-06-04T14:08:43;4.45;;;1.17;;
53309;SDS011;39197;53.200;5.792;2023-06-04T14:11:09;5.47;;;1.75;;
53309;SDS011;39197;53.200;5.792;2023-06-04T14:13:36;5.38;;;2.50;;
53309;SDS011;39197;53.200;5.792;2023-06-04T14:16:03;7.22;;;4.05;;
53309;SDS011;39197;53.200;5.792;2023-06-04T14:18:29;4.95;;;1.65;;
53309;SDS011;39197;53.200;5.792;2023-06-04T14:20:54;4.78;;;1.00;;
53309;SDS011;39197;53.200;5.792;2023-06-04T14:23:20;3.75;;;1.38;;
53309;SDS011;39197;53.200;5.792;2023-06-04T14:25:46;5.95;;;2.45;;
53309;SDS011;39197;53.200;5.792;2023-06-04T14:28:11;4.53;;;2.00;;
53309;SDS011;39197;53.200;5.792;2023-06-04T14:30:37;6.47;;;2.97;;
53309;SDS011;39197;53.200;5.792;2023-06-04T14:33:03;3.45;;;1.10;;
53309;SDS011;39197;53.200;5.792;2023-06-04T14:35:28;3.35;;;1.20;;
53309;SDS011;39197;53.200;5.792;2023-06-04T14:37:54;7.13;;;1.60;;
53309;SDS011;39197;53.200;5.792;2023-06-04T14:40:20;5.05;;;1.83;;
53309;SDS011;39197;53.200;5.792;2023-06-04T14:42:45;6.00;;;1.98;;
53309;SDS011;39197;53.200;5.792;2023-06-04T14:45:13;3.88;;;1.40;;
53309;SDS011;39197;53.200;5.792;2023-06-04T14:47:38;3.00;;;1.10;;
53309;SDS011;39197;53.200;5.792;2023-06-04T14:50:04;3.90;;;1.98;;
53309;SDS011;39197;53.200;5.792;2023-06-04T14:52:30;2.53;;;0.95;;
53309;SDS011;39197;53.200;5.792;2023-06-04T14:54:56;6.07;;;3.20;;
53309;SDS011;39197;53.200;5.792;2023-06-04T14:57:21;3.78;;;1.77;;